• Join FlightAware (Why Join?)
  • Login
  • US Flag 
02:00AM EST


 

Airport Tracker/Info


-or-


 

Live Flight TrackerFlight Track Log ✈ EJA122 ✈ 01-Jan-2014 ✈ KJAC - KBDN

Flight Track Log - Related Links

Times and Time Zones

All times are in EST time to prevent confusion due to time zone crossing. See the EJA122 flight status page for this flight to view local times or setup timezone preferences in your user account.

Time Position Orientation Groundspeed Altitude Reporting Facility
EST Latitude Longitude Course Direction KTS MPH feet Rate Location/Type
04:14PM 43.5783 -110.7542 277° West 151 174 7,800  Level Salt Lake Center
04:15PM 43.5253 -110.7908 207° Southwest 209 241 10,900 2,700 Climbing Salt Lake Center
04:16PM 43.4619 -110.8333 206° Southwest 241 277 13,500 2,340 Climbing Salt Lake Center
04:17PM 43.4578 -110.9158 266° West 222 255 15,700 2,040 Climbing Salt Lake Center
04:18PM 43.6790 -111.5398 277° West  Level Estimated
04:18PM 43.4669 -111.0108 278° West 243 280 17,700  Level Salt Lake Center
04:19PM 43.6904 -111.6737 277° West  Level Estimated
04:19PM 43.4800 -111.1336 278° West 267 307 19,500  Level Salt Lake Center
04:20PM 43.4928 -111.2514 279° West 299 344 21,100 1,500 Climbing Salt Lake Center
04:21PM 43.5044 -111.3706 278° West 322 371 22,600 1,440 Climbing Salt Lake Center
04:22PM 43.5181 -111.4931 279° West 334 384 24,100 1,260 Climbing Salt Lake Center
04:23PM 43.5339 -111.6436 278° West 350 403 25,300 1,020 Climbing Salt Lake Center
04:24PM 43.5469 -111.7775 278° West 365 420 26,300 960 Climbing Salt Lake Center
04:25PM 43.5631 -111.9386 278° West 377 434 27,400 1,020 Climbing Salt Lake Center
04:26PM 43.5769 -112.0772 278° West 381 438 28,400 960 Climbing Salt Lake Center
04:27PM 43.5908 -112.2167 278° West 383 441 29,400 1,020 Climbing Salt Lake Center
04:28PM 43.6058 -112.3792 277° West 383 441 30,500 1,020 Climbing Salt Lake Center
04:29PM 43.6192 -112.5189 278° West 382 440 31,500 720 Climbing Salt Lake Center
04:30PM 43.6331 -112.6794 277° West 378 435 32,000 240 Climbing Salt Lake Center
04:31PM 43.6461 -112.8239 277° West 390 449 32,000  Level Salt Lake Center
04:32PM 43.6622 -113.0000 277° West 408 470 32,000  Level Salt Lake Center
04:33PM 43.6750 -113.1450 277° West 401 461 32,000  Level Salt Lake Center
04:34PM 43.6875 -113.2842 277° West 387 445 32,000  Level Salt Lake Center
04:35PM 43.7000 -113.4450 276° West 380 437 32,000  Level Salt Lake Center
04:36PM 43.7139 -113.5847 278° West 383 441 32,000  Level Salt Lake Center
04:37PM 43.7264 -113.7425 276° West 369 425 32,000  Level Salt Lake Center
04:38PM 43.7392 -113.8781 277° West 369 425 32,000  Level Salt Lake Center
04:39PM 43.7492 -114.0161 276° West 365 420 32,000  Level Salt Lake Center
04:40PM 43.7589 -114.1519 276° West 357 411 32,000  Level Salt Lake Center
04:41PM 43.7708 -114.2878 277° West 356 410 32,000  Level Salt Lake Center
04:43PM 43.7800 -114.4250 275° West 357 411 32,000  Level Salt Lake Center
04:44PM 43.7925 -114.5903 276° West 360 414 32,000  Level Salt Lake Center
04:45PM 43.8028 -114.7303 276° West 365 420 32,000  Level Salt Lake Center
04:46PM 43.8133 -114.8719 276° West 371 427 32,000  Level Salt Lake Center
04:47PM 43.8233 -115.0144 276° West 374 430 32,000  Level Salt Lake Center
04:48PM 43.8328 -115.1600 275° West 379 436 32,000  Level Salt Lake Center
04:49PM 43.8433 -115.3025 276° West 374 430 32,000  Level Salt Lake Center
04:50PM 43.8531 -115.4478 275° West 379 436 32,000  Level Salt Lake Center
04:51PM 43.8631 -115.5931 276° West 379 436 32,000  Level Salt Lake Center
04:52PM 43.8725 -115.7397 275° West 380 437 32,000  Level Salt Lake Center
04:53PM 43.8833 -115.9167 275° West 382 440 32,000  Level Salt Lake Center
04:54PM 43.8936 -116.0636 276° West 382 440 32,000  Level Salt Lake Center
04:55PM 43.9019 -116.2106 275° West 381 438 32,000  Level Salt Lake Center
04:56PM 43.9111 -116.3581 275° West 383 441 32,000  Level Salt Lake Center
04:57PM 43.9197 -116.5053 275° West 383 441 32,000  Level Salt Lake Center
04:58PM 43.9281 -116.6522 275° West 383 441 32,000  Level Salt Lake Center
04:59PM 43.9361 -116.7983 274° West 380 437 32,000  Level Salt Lake Center
05:00PM 43.9447 -116.9461 275° West 383 441 32,000  Level Salt Lake Center
05:01PM 43.9519 -117.0919 274° West 381 438 32,000  Level Salt Lake Center
05:02PM 43.9617 -117.2694 274° West 384 442 32,000  Level Salt Lake Center
05:03PM 43.9692 -117.4172 274° West 385 443 32,000  Level Salt Lake Center
05:04PM 43.9772 -117.5647 274° West 384 442 32,000  Level Salt Lake Center
05:05PM 43.9828 -117.7119 273° West 384 442 32,000  Level Salt Lake Center
05:06PM 43.9906 -117.8597 274° West 385 443 32,000  Level Salt Lake Center
05:07PM 43.9975 -118.0103 274° West 390 449 32,000  Level Salt Lake Center
05:08PM 44.0047 -118.1592 274° West 389 448 32,000  Level Salt Lake Center
05:09PM 44.0106 -118.3092 273° West 390 449 32,000  Level Salt Lake Center
05:10PM 44.0169 -118.4769 273° West 389 448 32,000  Level Salt Lake Center
05:11PM 44.0231 -118.6389 273° West 388 447 32,000  Level Seattle Center
05:12PM 44.0289 -118.7856 273° West 383 441 32,000  Level Seattle Center
05:13PM 44.0344 -118.9342 273° West 385 443 32,000  Level Seattle Center
05:14PM 44.0403 -119.0708 273° West 386 444 32,000  Level Seattle Center
05:15PM 44.0456 -119.2219 273° West 391 450 32,000 -960 Level Seattle Center
05:16PM 44.0500 -119.3772 272° West 399 459 30,100 -2,100 Descending Seattle Center
05:17PM 44.0556 -119.5403 273° West 417 480 27,800 -2,280 Descending Seattle Center
05:18PM 44.0603 -119.7047 272° West 425 489 25,600 -2,280 Descending Seattle Center
05:19PM 44.0653 -119.8681 272° West 423 487 23,300 -2,220 Descending Seattle Center
05:20PM 44.0692 -120.0269 272° West 412 474 21,100 -2,160 Descending Seattle Center
05:21PM 44.0731 -120.1800 272° West 402 463 19,000 -1,980 Descending Seattle Center
05:22PM 44.0778 -120.3317 273° West 396 456 17,200 -1,920 Descending Seattle Center
05:23PM 44.0811 -120.4803 272° West 388 447 15,100 -2,040 Descending Seattle Center
05:24PM 44.0833 -120.6250 271° West 379 436 13,100 -2,220 Descending Seattle Center
05:25PM 44.0869 -120.7925 272° West 366 421 10,700 -1,980 Descending Seattle Center
05:26PM 44.0886 -120.9056 271° West 317 365 9,100 -1,500 Descending Seattle Center
05:27PM 44.0919 -121.0172 272° West 296 341 7,700 -1,440 Descending Seattle Center